Time;durP1;ratioP1;P1;durP2;ratioP2;P2;SDS_P1;SDS_P2;PMS_P1;PMS_P2;Temp;Humidity;BMP_temperature;BMP_pressure;BME280_temperature;BME280_humidity;BME280_pressure;Samples;Min_cycle;Max_cycle;Signal;HPM_P1;HPM_P2
2021/03/23 00:01:06;;;;;;;9.47;5.87;;;3.10;87.80;;;;;;5047704;28;20573;-84
2021/03/23 00:03:34;;;;;;;12.03;6.17;;;3.00;87.20;;;;;;5375025;22;20232;-83
2021/03/23 00:06:01;;;;;;;9.87;6.10;;;3.00;87.70;;;;;;5121338;27;20286;-84
2021/03/23 00:08:29;;;;;;;10.90;5.90;;;3.00;87.70;;;;;;5098558;28;20201;-81
2021/03/23 00:10:59;;;;;;;12.10;6.20;;;3.00;87.70;;;;;;5078733;28;20201;-81
2021/03/23 00:13:26;;;;;;;9.17;5.60;;;3.00;87.70;;;;;;5100230;28;20314;-81
2021/03/23 00:15:52;;;;;;;10.37;5.30;;;3.10;87.80;;;;;;5117224;28;20243;-80
2021/03/23 00:18:19;;;;;;;10.63;5.07;;;3.10;87.80;;;;;;5117176;28;20291;-80
2021/03/23 00:20:47;;;;;;;9.53;5.43;;;3.20;86.80;;;;;;5116755;28;20196;-80
2021/03/23 00:23:13;;;;;;;9.73;5.53;;;3.10;87.60;;;;;;5103737;28;20196;-80
2021/03/23 00:25:40;;;;;;;10.67;5.13;;;3.10;87.20;;;;;;5117894;28;20263;-82
2021/03/23 00:28:08;;;;;;;9.03;5.63;;;3.00;86.60;;;;;;5118175;28;20227;-81
2021/03/23 00:30:40;;;;;;;9.13;4.90;;;3.00;87.70;;;;;;5116390;28;20223;-81
2021/03/23 00:33:06;;;;;;;8.13;5.07;;;3.00;87.70;;;;;;5118358;28;20219;-81
2021/03/23 00:35:33;;;;;;;9.60;5.47;;;3.00;87.70;;;;;;5099526;28;20224;-81
2021/03/23 00:38:02;;;;;;;8.53;5.17;;;3.00;87.20;;;;;;5098236;28;20322;-81
2021/03/23 00:40:31;;;;;;;11.10;5.70;;;3.10;87.00;;;;;;5100082;28;20310;-81
2021/03/23 00:42:58;;;;;;;11.87;5.73;;;3.00;86.80;;;;;;5099583;28;20229;-80
2021/03/23 00:45:25;;;;;;;12.83;5.23;;;3.00;87.80;;;;;;5102487;28;20314;-80
2021/03/23 00:47:52;;;;;;;10.27;5.17;;;3.00;87.70;;;;;;5122205;28;20290;-80
2021/03/23 00:50:19;;;;;;;10.57;5.40;;;3.10;87.80;;;;;;5120978;28;20255;-80
2021/03/23 00:52:51;;;;;;;14.07;5.20;;;3.20;86.90;;;;;;5101872;28;20231;-82
2021/03/23 00:55:17;;;;;;;8.63;5.93;;;3.20;86.60;;;;;;5097590;28;20228;-81
2021/03/23 00:57:43;;;;;;;9.53;5.40;;;3.30;85.90;;;;;;5100417;28;20283;-80
2021/03/23 01:03:32;;;;;;;13.37;5.07;;;3.40;85.80;;;;;;5115861;28;20242;-81
2021/03/23 01:05:58;;;;;;;9.57;5.33;;;3.50;85.60;;;;;;5120710;27;20291;-82
2021/03/23 01:08:25;;;;;;;8.40;5.77;;;3.40;86.50;;;;;;5119062;27;20276;-81
2021/03/23 01:10:51;;;;;;;8.73;5.40;;;3.50;85.70;;;;;;5140549;27;20228;-81
2021/03/23 01:13:18;;;;;;;11.10;5.60;;;3.50;85.60;;;;;;5141792;27;20605;-81
2021/03/23 01:15:44;;;;;;;9.80;5.97;;;3.50;85.20;;;;;;5154447;27;20617;-81
2021/03/23 01:18:11;;;;;;;10.73;5.77;;;3.40;85.20;;;;;;5140885;27;20199;-81
2021/03/23 01:20:38;;;;;;;9.20;5.67;;;3.40;85.40;;;;;;5140002;27;20226;-81
2021/03/23 01:23:04;;;;;;;13.57;7.03;;;3.50;85.00;;;;;;5123408;27;20203;-81
2021/03/23 01:25:31;;;;;;;10.20;5.93;;;3.50;85.00;;;;;;5100227;27;20225;-81
2021/03/23 01:27:58;;;;;;;9.93;5.70;;;3.50;84.30;;;;;;5108240;28;20245;-81
2021/03/23 01:30:27;;;;;;;14.00;6.90;;;3.50;84.40;;;;;;5099113;28;20354;-81
2021/03/23 01:33:15;;;;;;;10.60;6.40;;;3.50;84.50;;;;;;5118813;28;20685;-81
2021/03/23 01:35:43;;;;;;;11.40;5.53;;;3.50;84.00;;;;;;5140311;27;20291;-81
2021/03/23 01:38:09;;;;;;;12.83;6.47;;;3.50;84.10;;;;;;5136743;27;20199;-81
2021/03/23 01:40:37;;;;;;;9.90;6.70;;;3.50;84.20;;;;;;5120260;28;20228;-81
2021/03/23 01:43:05;;;;;;;13.10;6.80;;;3.50;85.20;;;;;;5120617;28;20208;-81
2021/03/23 01:45:34;;;;;;;11.67;6.67;;;3.40;85.40;;;;;;5101361;28;20220;-81
2021/03/23 01:48:03;;;;;;;10.57;6.30;;;3.40;85.10;;;;;;5120923;28;20287;-81
2021/03/23 01:50:31;;;;;;;10.80;6.90;;;3.40;85.60;;;;;;5119212;28;20311;-81
2021/03/23 01:53:06;;;;;;;14.00;7.37;;;3.40;86.20;;;;;;5120156;28;20650;-81
2021/03/23 01:55:33;;;;;;;14.00;7.27;;;3.40;84.80;;;;;;5107655;28;20227;-81
2021/03/23 01:58:00;;;;;;;11.87;6.87;;;3.30;86.00;;;;;;5118437;28;20548;-81
2021/03/23 02:03:50;;;;;;;13.70;7.43;;;3.20;86.40;;;;;;5112584;28;20830;-81
2021/03/23 02:06:38;;;;;;;11.47;7.10;;;3.20;86.20;;;;;;5098085;28;20292;-81
2021/03/23 02:09:10;;;;;;;13.60;8.50;;;3.20;87.80;;;;;;5098542;27;20235;-81
2021/03/23 02:11:43;;;;;;;11.07;6.77;;;3.10;87.50;;;;;;5140214;27;20498;-81
2021/03/23 02:14:10;;;;;;;20.00;7.97;;;3.20;86.70;;;;;;5147232;27;20237;-81
2021/03/23 02:16:37;;;;;;;14.50;7.77;;;3.10;87.80;;;;;;5158117;27;20202;-81
2021/03/23 02:19:05;;;;;;;13.80;7.33;;;3.00;87.70;;;;;;5159090;27;20313;-81
2021/03/23 02:21:32;;;;;;;13.20;7.50;;;2.90;87.70;;;;;;5142733;27;20195;-81
2021/03/23 02:23:59;;;;;;;17.60;8.20;;;2.90;87.70;;;;;;5123950;27;20228;-81
2021/03/23 02:26:29;;;;;;;15.53;8.50;;;2.80;87.60;;;;;;5108263;28;20195;-81
2021/03/23 02:28:58;;;;;;;14.30;8.17;;;2.70;89.10;;;;;;5118092;28;20228;-81
2021/03/23 02:31:27;;;;;;;12.50;7.97;;;2.70;88.90;;;;;;5118971;28;20319;-81
2021/03/23 02:33:54;;;;;;;16.03;8.00;;;2.80;89.40;;;;;;5117760;27;20287;-81
2021/03/23 02:36:20;;;;;;;16.83;7.97;;;2.90;88.70;;;;;;5119528;28;20200;-81
2021/03/23 02:38:48;;;;;;;14.93;8.40;;;3.00;87.80;;;;;;5119139;28;20353;-81
2021/03/23 02:44:40;;;;;;;14.20;8.03;;;3.00;87.80;;;;;;5123910;27;20223;-81
2021/03/23 02:47:09;;;;;;;16.70;8.43;;;3.00;87.70;;;;;;5118867;28;20647;-81
2021/03/23 02:49:35;;;;;;;13.27;8.13;;;3.00;87.70;;;;;;5118531;28;20682;-81
2021/03/23 02:52:02;;;;;;;15.97;8.43;;;3.00;87.70;;;;;;5116431;28;20714;-81
2021/03/23 02:54:29;;;;;;;16.17;9.40;;;3.00;87.70;;;;;;5116343;28;20265;-81
2021/03/23 02:56:56;;;;;;;14.87;8.50;;;3.00;87.70;;;;;;5101160;28;20738;-81
2021/03/23 02:59:22;;;;;;;12.27;8.23;;;3.00;87.70;;;;;;5105844;28;20238;-81
2021/03/23 03:01:49;;;;;;;15.93;8.20;;;3.00;87.70;;;;;;5116803;28;20227;-81
2021/03/23 03:04:15;;;;;;;14.07;8.80;;;2.90;87.70;;;;;;5120099;27;20275;-81
2021/03/23 03:06:42;;;;;;;17.37;9.17;;;2.90;88.50;;;;;;5136331;27;20202;-81
2021/03/23 03:09:09;;;;;;;13.03;9.40;;;2.80;89.00;;;;;;5130437;27;20705;-81
2021/03/23 03:11:36;;;;;;;15.50;8.67;;;2.80;90.00;;;;;;5095430;28;20283;-81
2021/03/23 03:14:03;;;;;;;14.70;9.23;;;2.70;90.10;;;;;;5105983;27;20251;-81
2021/03/23 03:16:29;;;;;;;14.83;9.30;;;2.60;90.30;;;;;;5135738;27;20198;-81
2021/03/23 03:18:56;;;;;;;18.13;9.67;;;2.50;90.50;;;;;;5129602;27;20245;-81
2021/03/23 03:21:22;;;;;;;16.43;9.00;;;2.60;90.70;;;;;;5115321;28;20721;-81
2021/03/23 03:23:48;;;;;;;16.47;9.20;;;2.60;90.90;;;;;;5113184;28;20313;-81
2021/03/23 03:26:15;;;;;;;18.37;10.20;;;2.70;90.90;;;;;;5116422;28;20199;-81
2021/03/23 03:28:49;;;;;;;18.93;9.63;;;2.80;90.40;;;;;;5116768;27;20791;-85
2021/03/23 03:31:17;;;;;;;14.80;9.17;;;2.90;90.00;;;;;;5136746;27;20210;-81
2021/03/23 03:33:43;;;;;;;17.70;8.90;;;3.00;89.50;;;;;;5127407;27;20278;-81
2021/03/23 03:36:09;;;;;;;16.43;9.00;;;3.10;88.90;;;;;;5095110;28;20303;-81
2021/03/23 03:38:36;;;;;;;18.57;8.70;;;3.10;88.50;;;;;;5094591;28;20220;-81
2021/03/23 03:41:02;;;;;;;18.70;9.20;;;3.10;87.80;;;;;;5095048;28;20551;-81
2021/03/23 03:43:31;;;;;;;15.67;9.17;;;3.10;87.80;;;;;;5109887;28;20231;-81
2021/03/23 03:45:58;;;;;;;13.30;8.50;;;3.10;87.80;;;;;;5117434;28;20192;-81
2021/03/23 03:48:25;;;;;;;16.20;8.57;;;2.90;87.70;;;;;;5117319;28;20199;-81
2021/03/23 03:50:52;;;;;;;15.73;8.63;;;2.90;89.00;;;;;;5117592;28;20263;-80
2021/03/23 03:53:19;;;;;;;14.13;7.67;;;3.00;89.00;;;;;;5113220;28;20216;-81
2021/03/23 03:55:46;;;;;;;15.37;8.50;;;3.00;87.80;;;;;;5117647;28;20192;-81
2021/03/23 03:58:14;;;;;;;16.30;8.90;;;3.10;87.80;;;;;;5117344;28;20291;-81
2021/03/23 04:00:40;;;;;;;11.83;7.90;;;3.00;88.20;;;;;;5116384;28;20212;-81
2021/03/23 04:03:11;;;;;;;15.83;8.70;;;3.10;87.80;;;;;;5102078;28;20220;-81
2021/03/23 04:05:39;;;;;;;12.93;7.97;;;3.00;87.70;;;;;;5094712;28;20235;-81
2021/03/23 04:08:07;;;;;;;14.83;8.60;;;3.00;87.70;;;;;;5094776;28;20193;-81
2021/03/23 04:10:34;;;;;;;14.93;8.87;;;2.90;88.30;;;;;;5094521;28;20236;-81
2021/03/23 04:13:00;;;;;;;12.33;8.63;;;2.90;87.70;;;;;;5092463;28;20273;-81
2021/03/23 04:15:30;;;;;;;13.27;8.00;;;2.90;88.70;;;;;;5094377;28;20228;-81
2021/03/23 04:17:56;;;;;;;12.83;8.33;;;2.90;88.20;;;;;;5095114;28;20196;-81
2021/03/23 04:20:24;;;;;;;16.27;8.40;;;2.80;89.00;;;;;;5094936;28;20258;-81
2021/03/23 04:22:51;;;;;;;16.00;8.50;;;2.70;89.80;;;;;;5110320;28;20244;-81
2021/03/23 04:25:21;;;;;;;14.90;8.60;;;2.80;89.90;;;;;;5135630;27;20237;-81
2021/03/23 04:27:47;;;;;;;14.40;8.53;;;2.90;88.90;;;;;;5119904;28;20191;-81
2021/03/23 04:30:16;;;;;;;16.13;8.50;;;2.90;88.90;;;;;;5114468;28;20266;-81
2021/03/23 04:32:42;;;;;;;15.77;9.30;;;2.90;88.40;;;;;;5114494;28;20192;-81
2021/03/23 04:35:17;;;;;;;14.83;8.17;;;3.00;87.70;;;;;;5114240;28;20310;-81
2021/03/23 04:37:44;;;;;;;14.87;8.73;;;3.00;87.70;;;;;;5112556;28;20195;-80
2021/03/23 04:40:12;;;;;;;15.80;8.87;;;3.00;87.70;;;;;;5114092;28;20686;-80
2021/03/23 04:42:38;;;;;;;16.27;8.93;;;3.00;87.70;;;;;;5116503;28;20664;-80
2021/03/23 04:45:06;;;;;;;14.67;8.77;;;2.90;88.50;;;;;;5115426;28;20662;-81
2021/03/23 04:47:32;;;;;;;16.87;9.10;;;2.90;88.80;;;;;;5115384;28;20625;-81
2021/03/23 04:49:59;;;;;;;14.70;8.77;;;3.00;89.40;;;;;;5113865;28;20570;-80
2021/03/23 04:52:25;;;;;;;17.10;8.83;;;3.10;87.80;;;;;;5116861;28;20574;-81
2021/03/23 04:54:52;;;;;;;19.30;9.17;;;3.10;87.80;;;;;;5115304;28;20827;-80
2021/03/23 04:57:18;;;;;;;15.23;8.83;;;3.10;87.80;;;;;;5113659;28;20192;-81
2021/03/23 04:59:45;;;;;;;17.30;8.40;;;3.10;87.80;;;;;;5116671;28;20228;-81
2021/03/23 05:02:11;;;;;;;16.80;9.07;;;3.10;87.80;;;;;;5116313;28;20219;-80
2021/03/23 05:04:38;;;;;;;17.87;9.00;;;3.00;87.70;;;;;;5115496;28;20254;-81
2021/03/23 05:10:27;;;;;;;18.73;9.50;;;3.00;88.00;;;;;;5114551;28;20265;-81
2021/03/23 05:12:53;;;;;;;14.80;9.33;;;2.90;88.50;;;;;;5114074;28;20555;-81
2021/03/23 05:15:19;;;;;;;15.60;9.07;;;3.00;89.80;;;;;;5113629;28;20231;-80
2021/03/23 05:17:46;;;;;;;16.33;9.67;;;3.10;88.60;;;;;;5115148;28;20198;-81
2021/03/23 05:20:13;;;;;;;18.17;9.30;;;3.10;87.90;;;;;;5114264;28;20231;-81
2021/03/23 05:22:39;;;;;;;15.87;10.07;;;3.20;88.70;;;;;;5114378;28;20199;-81
2021/03/23 05:25:07;;;;;;;19.77;9.83;;;3.30;88.00;;;;;;5116414;28;20224;-80
2021/03/23 05:27:34;;;;;;;16.20;9.50;;;3.40;88.00;;;;;;5120497;28;20200;-81
2021/03/23 05:30:00;;;;;;;14.23;9.17;;;3.50;89.80;;;;;;5120003;28;20228;-80
2021/03/23 05:32:28;;;;;;;18.50;10.17;;;3.60;89.80;;;;;;5118536;28;20192;-80
2021/03/23 05:34:54;;;;;;;17.80;9.93;;;3.80;88.20;;;;;;5116863;28;20267;-81
2021/03/23 05:37:20;;;;;;;21.70;10.53;;;4.00;86.70;;;;;;5118734;28;20303;-81
2021/03/23 05:39:47;;;;;;;16.10;9.90;;;3.90;88.30;;;;;;5117152;28;20251;-81
2021/03/23 05:45:39;;;;;;;15.27;9.77;;;3.80;88.30;;;;;;5116855;28;20607;-80
2021/03/23 05:48:18;;;;;;;22.20;11.03;;;3.80;86.10;;;;;;5117653;28;20351;-80
2021/03/23 05:50:51;;;;;;;18.57;10.37;;;3.50;85.20;;;;;;5117365;28;20211;-79
2021/03/23 05:53:26;;;;;;;17.67;10.30;;;3.80;88.20;;;;;;5117794;27;20585;-81
2021/03/23 05:55:52;;;;;;;20.60;10.67;;;3.80;86.90;;;;;;5118444;28;20183;-80
2021/03/23 05:58:21;;;;;;;18.30;10.33;;;3.60;87.80;;;;;;5117136;27;20735;-81
2021/03/23 06:00:57;;;;;;;18.37;10.60;;;3.80;88.20;;;;;;5117738;28;20196;-80
2021/03/23 06:03:29;;;;;;;17.20;9.90;;;4.00;88.30;;;;;;5117559;27;20220;-81
2021/03/23 06:06:03;;;;;;;19.43;10.67;;;4.00;85.90;;;;;;5118006;28;20199;-81
2021/03/23 06:08:31;;;;;;;23.27;10.83;;;3.80;84.30;;;;;;5117478;28;20181;-81
2021/03/23 06:11:24;;;;;;;22.17;11.07;;;3.70;84.80;;;;;;5117170;28;20198;-81
2021/03/23 06:13:56;;;;;;;16.67;10.40;;;3.60;87.20;;;;;;5113721;28;20589;-80
2021/03/23 06:19:53;;;;;;;19.63;11.27;;;3.50;89.70;;;;;;5115780;28;20272;-82
2021/03/23 06:22:33;;;;;;;18.63;10.70;;;3.90;88.40;;;;;;5117223;28;20550;-81
2021/03/23 06:25:04;;;;;;;18.70;10.90;;;4.00;85.00;;;;;;5116328;28;20612;-87
2021/03/23 06:27:35;;;;;;;21.53;11.53;;;4.10;85.90;;;;;;5117658;28;20188;-80
2021/03/23 06:30:34;;;;;;;18.10;11.50;;;4.00;84.90;;;;;;5116301;28;20307;-80
2021/03/23 06:33:00;;;;;;;18.43;11.17;;;3.80;86.00;;;;;;5113869;28;20746;-80
2021/03/23 06:35:31;;;;;;;18.03;11.43;;;4.00;86.80;;;;;;5111549;27;20234;-82
2021/03/23 06:37:58;;;;;;;22.90;12.07;;;4.30;84.80;;;;;;5115900;28;20209;-80
2021/03/23 06:47:51;;;;;;;19.73;11.33;;;4.90;79.30;;;;;;5116041;28;20213;-82
2021/03/23 07:00:25;;;;;;;18.23;11.23;;;6.00;75.10;;;;;;5116828;28;20224;-84
2021/03/23 07:02:55;;;;;;;19.83;11.67;;;7.00;70.30;;;;;;5121207;28;20215;-87
2021/03/23 07:05:35;;;;;;;22.10;12.47;;;7.40;65.20;;;;;;5107237;27;20216;-86
2021/03/23 07:08:21;;;;;;;20.83;12.43;;;7.70;62.70;;;;;;5115831;28;20548;-86
2021/03/23 07:17:34;;;;;;;19.85;10.98;;;8.20;59.40;;;;;;5149115;27;20178;-86
2021/03/23 07:20:08;;;;;;;19.83;12.40;;;8.10;59.50;;;;;;5118145;27;20592;-86
2021/03/23 07:22:49;;;;;;;18.77;12.07;;;8.00;59.40;;;;;;5123192;27;20207;-86
2021/03/23 07:29:14;;;;;;;23.93;12.07;;;7.20;63.00;;;;;;5118113;27;20238;-86
2021/03/23 07:31:44;;;;;;;26.80;13.37;;;6.60;69.70;;;;;;5119824;28;20569;-86
2021/03/23 07:34:52;;;;;;;26.70;14.47;;;6.30;71.10;;;;;;5101515;27;20238;-86
2021/03/23 07:37:21;;;;;;;23.10;11.37;;;6.10;71.60;;;;;;5109923;28;20548;-85
2021/03/23 07:39:53;;;;;;;23.17;12.40;;;6.20;71.00;;;;;;5129227;27;20322;-86
2021/03/23 07:42:26;;;;;;;21.43;11.97;;;6.60;71.50;;;;;;5142281;27;20279;-85
2021/03/23 07:44:56;;;;;;;19.77;11.80;;;6.80;71.50;;;;;;5138215;27;20296;-85
2021/03/23 07:47:31;;;;;;;22.30;11.80;;;7.30;69.50;;;;;;5142049;27;20252;-85
2021/03/23 07:50:04;;;;;;;24.38;12.65;;;7.50;64.30;;;;;;5143009;27;20286;-86
2021/03/23 07:52:36;;;;;;;19.63;11.73;;;7.80;63.00;;;;;;5104383;28;20199;-87
2021/03/23 07:55:04;;;;;;;21.58;12.73;;;8.10;62.30;;;;;;5132428;27;20302;-86
2021/03/23 07:58:03;;;;;;;21.30;12.35;;;8.40;60.40;;;;;;5102237;28;20283;-85
2021/03/23 08:01:06;;;;;;;19.98;11.27;;;8.80;59.60;;;;;;5068632;28;20262;-85
2021/03/23 08:04:03;;;;;;;17.10;10.80;;;10.20;53.00;;;;;;5121621;28;20266;-85
2021/03/23 08:13:50;;;;;;;17.65;11.30;;;11.40;43.00;;;;;;5121684;28;20202;-86
2021/03/23 08:20:11;;;;;;;20.38;10.90;;;10.60;47.30;;;;;;5114173;28;20226;-86
2021/03/23 08:23:09;;;;;;;18.52;10.55;;;10.60;47.40;;;;;;5117941;28;20282;-87
2021/03/23 08:29:05;;;;;;;15.38;9.40;;;10.90;43.90;;;;;;5119229;28;20300;-87
2021/03/23 08:31:40;;;;;;;17.52;10.30;;;10.50;47.30;;;;;;5121923;28;20248;-88
2021/03/23 08:38:03;;;;;;;17.58;10.77;;;10.60;46.20;;;;;;5101742;28;20635;-85
2021/03/23 08:40:37;;;;;;;20.30;10.77;;;9.80;48.10;;;;;;5099828;28;20248;-87
2021/03/23 08:43:04;;;;;;;16.58;9.60;;;9.70;49.00;;;;;;5101431;28;20286;-87
2021/03/23 08:45:36;;;;;;;18.67;10.30;;;9.50;49.70;;;;;;5104483;28;20709;-87
2021/03/23 08:51:26;;;;;;;16.85;9.77;;;10.20;47.00;;;;;;5100315;28;20215;-88
2021/03/23 08:53:56;;;;;;;15.38;9.20;;;10.70;45.40;;;;;;5096988;28;20231;-87
2021/03/23 08:56:57;;;;;;;18.08;9.50;;;10.30;47.00;;;;;;5095028;28;20204;-88
2021/03/23 08:59:40;;;;;;;17.27;8.63;;;10.40;46.20;;;;;;5098198;27;20561;-88
2021/03/23 09:02:44;;;;;;;16.27;9.75;;;10.40;44.90;;;;;;5094449;28;20219;-89
2021/03/23 09:05:58;;;;;;;14.38;9.13;;;10.60;44.50;;;;;;5097106;28;20252;-89
2021/03/23 09:08:46;;;;;;;13.05;8.30;;;10.60;44.90;;;;;;5102831;28;20200;-89
2021/03/23 09:11:42;;;;;;;12.38;7.97;;;11.00;42.80;;;;;;5092115;28;20197;-88
2021/03/23 09:14:17;;;;;;;12.80;8.00;;;11.40;40.30;;;;;;5106158;28;20225;-89
2021/03/23 09:17:03;;;;;;;18.42;8.77;;;11.40;39.50;;;;;;5101503;28;20226;-86
2021/03/23 09:19:39;;;;;;;19.60;8.57;;;10.70;41.50;;;;;;5104997;28;20224;-85
2021/03/23 09:22:36;;;;;;;14.00;7.97;;;11.30;41.00;;;;;;5105832;28;20185;-85
2021/03/23 09:25:48;;;;;;;12.65;6.80;;;11.90;37.70;;;;;;5094534;28;20216;-87
2021/03/23 09:28:46;;;;;;;16.02;7.13;;;11.40;37.40;;;;;;5073623;28;20261;-86
2021/03/23 09:31:19;;;;;;;15.68;7.03;;;12.70;36.20;;;;;;5087123;28;20216;-88
2021/03/23 09:33:48;;;;;;;18.83;8.68;;;13.30;34.20;;;;;;5094287;28;20220;-87
2021/03/23 09:36:50;;;;;;;15.55;7.78;;;12.40;34.90;;;;;;5092731;28;20201;-88
2021/03/23 09:39:36;;;;;;;15.13;8.13;;;11.30;37.40;;;;;;5096543;28;20266;-86
2021/03/23 09:42:29;;;;;;;12.70;7.88;;;12.60;37.60;;;;;;5094671;28;20212;-85
2021/03/23 09:45:00;;;;;;;13.10;8.43;;;13.90;34.20;;;;;;5090201;28;20239;-83
2021/03/23 09:47:38;;;;;;;11.50;6.75;;;15.30;30.00;;;;;;5101085;28;20203;-83
2021/03/23 09:50:19;;;;;;;11.60;7.78;;;16.20;28.90;;;;;;5091830;28;20242;-85
2021/03/23 09:52:46;;;;;;;12.82;8.05;;;15.60;28.30;;;;;;5094242;28;20197;-86
2021/03/23 09:55:15;;;;;;;11.63;6.95;;;13.50;31.60;;;;;;5099854;28;20583;-85
2021/03/23 09:57:52;;;;;;;11.30;4.65;;;13.00;32.40;;;;;;5091474;28;20196;-87
2021/03/23 10:00:26;;;;;;;8.82;4.85;;;13.90;28.90;;;;;;5098640;28;20317;-85
2021/03/23 10:02:52;;;;;;;10.82;5.30;;;14.70;27.60;;;;;;5094265;28;20312;-85
2021/03/23 10:05:21;;;;;;;10.52;5.57;;;16.20;27.20;;;;;;5085187;28;20220;-85
2021/03/23 10:07:51;;;;;;;7.57;5.85;;;17.90;24.30;;;;;;5094818;28;20196;-85
2021/03/23 10:10:29;;;;;;;4.88;4.22;;;19.20;23.40;;;;;;5094096;28;20675;-84
2021/03/23 10:13:00;;;;;;;6.40;4.60;;;18.60;19.40;;;;;;5094270;28;20639;-83
2021/03/23 10:15:31;;;;;;;9.30;5.05;;;18.20;19.70;;;;;;5087392;28;20225;-84
2021/03/23 10:18:12;;;;;;;7.50;4.28;;;17.10;21.20;;;;;;5088173;28;20219;-84
2021/03/23 10:20:39;;;;;;;7.40;4.50;;;15.40;23.40;;;;;;5097809;28;20222;-89
2021/03/23 10:23:06;;;;;;;6.88;4.30;;;14.80;26.60;;;;;;5094270;28;20629;-86
2021/03/23 10:25:33;;;;;;;12.73;4.30;;;14.30;27.20;;;;;;5093738;28;20228;-86
2021/03/23 10:28:01;;;;;;;8.88;4.50;;;12.80;26.00;;;;;;5103881;28;20220;-85
2021/03/23 10:30:33;;;;;;;7.72;4.65;;;11.80;29.80;;;;;;5104830;28;20819;-85
2021/03/23 10:33:17;;;;;;;7.65;4.50;;;10.90;32.20;;;;;;5105551;28;20204;-85
2021/03/23 10:35:52;;;;;;;7.10;3.72;;;10.50;32.90;;;;;;5127370;27;20246;-87
2021/03/23 10:38:21;;;;;;;10.48;4.40;;;10.20;32.30;;;;;;5121367;28;20569;-85
2021/03/23 10:40:49;;;;;;;8.88;4.28;;;9.70;34.60;;;;;;5115881;27;20589;-89
2021/03/23 10:43:30;;;;;;;10.80;4.65;;;9.30;35.60;;;;;;5116346;27;20248;-86
2021/03/23 10:45:58;;;;;;;9.55;5.47;;;8.90;36.90;;;;;;5123717;27;20272;-88
2021/03/23 10:48:27;;;;;;;12.50;5.43;;;8.80;40.30;;;;;;5116447;27;20720;-85
2021/03/23 10:51:17;;;;;;;10.15;6.30;;;8.80;42.20;;;;;;5117183;27;20195;-87
2021/03/23 10:54:02;;;;;;;12.57;6.00;;;8.90;42.50;;;;;;5124544;27;20298;-85
2021/03/23 10:56:43;;;;;;;10.85;6.10;;;9.00;41.80;;;;;;5116577;27;20196;-85
2021/03/23 10:59:12;;;;;;;12.05;6.07;;;8.60;42.30;;;;;;5117857;27;20234;-87
2021/03/23 11:01:56;;;;;;;12.02;6.05;;;8.80;41.40;;;;;;5117016;27;20195;-86
2021/03/23 11:04:22;;;;;;;13.05;6.20;;;8.70;42.10;;;;;;5115599;28;20253;-87
2021/03/23 11:06:49;;;;;;;11.98;6.18;;;8.70;43.70;;;;;;5115942;28;20287;-85
2021/03/23 11:09:16;;;;;;;9.68;5.63;;;8.80;43.90;;;;;;5121725;27;20215;-86
2021/03/23 11:11:44;;;;;;;11.37;5.93;;;8.80;42.90;;;;;;5119366;27;20539;-85
2021/03/23 11:14:11;;;;;;;10.77;5.85;;;8.90;42.20;;;;;;5117309;27;20288;-87
2021/03/23 11:16:41;;;;;;;11.00;5.20;;;9.10;42.10;;;;;;5117378;27;20295;-85
2021/03/23 11:19:19;;;;;;;9.90;4.80;;;9.30;41.30;;;;;;5115671;27;20229;-86
2021/03/23 11:21:46;;;;;;;8.18;4.85;;;9.10;40.80;;;;;;5124560;27;20202;-85
2021/03/23 11:24:13;;;;;;;11.63;5.30;;;8.80;40.20;;;;;;5120502;27;20251;-84
2021/03/23 11:26:43;;;;;;;7.55;4.75;;;8.60;40.80;;;;;;5124745;27;20283;-83
2021/03/23 11:29:14;;;;;;;12.15;4.88;;;8.70;40.30;;;;;;5113426;27;20720;-85
2021/03/23 11:31:40;;;;;;;8.57;5.22;;;8.60;42.30;;;;;;5119186;27;20200;-84
2021/03/23 11:34:07;;;;;;;9.48;4.75;;;8.70;40.50;;;;;;5115759;27;20265;-84
2021/03/23 11:36:35;;;;;;;6.22;4.63;;;8.90;41.20;;;;;;5118374;27;20216;-88
2021/03/23 11:39:04;;;;;;;12.68;4.90;;;9.20;39.70;;;;;;5120562;27;20195;-84
2021/03/23 11:41:34;;;;;;;13.95;5.70;;;9.70;40.00;;;;;;5117188;27;20663;-85
2021/03/23 11:44:03;;;;;;;11.32;6.32;;;9.90;39.30;;;;;;5124050;27;20242;-83
2021/03/23 11:46:39;;;;;;;9.75;5.88;;;9.80;39.90;;;;;;5116583;27;20296;-83
2021/03/23 11:49:11;;;;;;;10.52;6.53;;;9.70;40.20;;;;;;5110815;27;21287;-86
2021/03/23 11:51:43;;;;;;;9.77;6.05;;;9.80;40.60;;;;;;5108975;27;20565;-86
2021/03/23 11:54:10;;;;;;;9.18;5.80;;;9.80;41.00;;;;;;5112030;27;20313;-83
2021/03/23 11:56:37;;;;;;;10.43;5.53;;;9.40;39.30;;;;;;5116556;27;20226;-83
2021/03/23 11:59:04;;;;;;;11.30;6.75;;;9.20;41.70;;;;;;5108544;28;20729;-82
2021/03/23 12:01:32;;;;;;;11.55;6.60;;;9.00;42.00;;;;;;5125636;27;20214;-85
2021/03/23 12:03:58;;;;;;;13.18;5.95;;;9.30;42.00;;;;;;5112885;28;20231;-82
2021/03/23 12:06:34;;;;;;;9.23;5.13;;;9.50;40.90;;;;;;5125124;27;20228;-89
2021/03/23 12:09:09;;;;;;;8.68;5.32;;;9.60;39.10;;;;;;5116844;27;20225;-88
2021/03/23 12:11:41;;;;;;;11.50;6.05;;;9.70;39.50;;;;;;5110800;28;20241;-91
2021/03/23 12:14:18;;;;;;;9.10;5.85;;;10.10;38.00;;;;;;5116902;28;20758;-88
2021/03/23 12:17:02;;;;;;;8.93;5.90;;;10.20;38.00;;;;;;5105801;28;20203;-88
2021/03/23 12:19:37;;;;;;;9.15;5.63;;;10.40;38.70;;;;;;5103740;28;20220;-88
2021/03/23 12:22:04;;;;;;;9.27;5.50;;;10.20;36.40;;;;;;5107412;28;20584;-88
2021/03/23 12:24:31;;;;;;;8.25;5.07;;;10.20;37.30;;;;;;5108361;28;20686;-88
2021/03/23 12:26:58;;;;;;;10.18;4.72;;;10.00;37.30;;;;;;5104240;28;20204;-89
2021/03/23 12:29:38;;;;;;;15.13;4.95;;;10.10;38.00;;;;;;5106106;28;20230;-90
2021/03/23 12:32:07;;;;;;;12.63;5.13;;;10.10;37.70;;;;;;5114060;28;20277;-88
2021/03/23 12:34:34;;;;;;;11.25;5.53;;;10.00;37.60;;;;;;5109528;27;20322;-88
2021/03/23 12:37:00;;;;;;;10.77;5.40;;;10.00;37.70;;;;;;5108770;27;20204;-88
2021/03/23 12:39:27;;;;;;;10.40;5.80;;;10.40;37.70;;;;;;5114830;27;20219;-89
2021/03/23 12:41:53;;;;;;;14.88;6.28;;;10.80;36.50;;;;;;5120348;27;20258;-88
2021/03/23 12:44:21;;;;;;;9.32;6.72;;;10.80;37.00;;;;;;5110357;27;20633;-89
2021/03/23 12:46:48;;;;;;;12.00;6.20;;;10.80;37.10;;;;;;5113268;27;20256;-88
2021/03/23 12:49:16;;;;;;;11.15;6.93;;;10.50;36.40;;;;;;5092569;27;20718;-88
2021/03/23 12:51:46;;;;;;;10.57;7.80;;;10.40;37.20;;;;;;5097738;28;20199;-89
2021/03/23 12:54:17;;;;;;;12.85;7.35;;;10.00;38.80;;;;;;5110129;27;20679;-89
2021/03/23 12:56:44;;;;;;;12.38;7.63;;;9.80;42.70;;;;;;5112111;27;20204;-90
2021/03/23 12:59:15;;;;;;;14.60;7.20;;;9.90;43.40;;;;;;5113214;27;20228;-90
2021/03/23 13:01:42;;;;;;;11.05;6.18;;;9.80;43.60;;;;;;5112976;27;20210;-89
2021/03/23 13:04:10;;;;;;;9.13;6.15;;;9.80;42.50;;;;;;5111460;27;20288;-89
2021/03/23 13:06:38;;;;;;;12.32;6.75;;;9.60;43.00;;;;;;5111764;27;20608;-89
2021/03/23 13:09:05;;;;;;;14.23;7.22;;;9.40;43.10;;;;;;5110525;27;20331;-87
2021/03/23 13:11:33;;;;;;;11.63;5.82;;;9.30;44.10;;;;;;5118657;27;20742;-88
2021/03/23 13:14:03;;;;;;;10.25;6.65;;;9.30;43.70;;;;;;5098000;28;20274;-88
2021/03/23 13:16:32;;;;;;;12.10;6.47;;;9.40;43.80;;;;;;5108714;27;20208;-88
2021/03/23 13:18:58;;;;;;;15.75;7.38;;;9.40;43.90;;;;;;5119254;27;20236;-89
2021/03/23 13:21:28;;;;;;;12.07;6.20;;;9.60;43.80;;;;;;5115770;27;20208;-88
2021/03/23 13:23:59;;;;;;;10.20;6.70;;;9.60;42.20;;;;;;5112847;27;20232;-88
2021/03/23 13:26:28;;;;;;;13.32;6.50;;;9.70;43.00;;;;;;5111455;27;20607;-88
2021/03/23 13:29:01;;;;;;;12.10;6.75;;;9.50;43.40;;;;;;5118635;27;20219;-89
2021/03/23 13:31:31;;;;;;;11.73;7.10;;;9.00;45.10;;;;;;5104925;27;20204;-91
2021/03/23 13:33:58;;;;;;;10.63;7.32;;;9.00;45.60;;;;;;5115120;27;20734;-87
2021/03/23 13:36:38;;;;;;;12.18;6.85;;;9.00;47.50;;;;;;5120638;27;20336;-88
2021/03/23 13:39:11;;;;;;;11.65;7.07;;;9.20;46.30;;;;;;5114213;27;20239;-87
2021/03/23 13:41:37;;;;;;;12.40;7.68;;;9.30;45.80;;;;;;5121763;27;20218;-87
2021/03/23 13:44:18;;;;;;;14.07;7.57;;;9.40;45.80;;;;;;5119750;27;20238;-89
2021/03/23 13:46:50;;;;;;;17.25;8.57;;;9.50;45.50;;;;;;5117472;27;20712;-89
2021/03/23 13:49:16;;;;;;;12.82;8.18;;;9.30;47.70;;;;;;5111302;27;20276;-88
2021/03/23 13:51:46;;;;;;;12.30;8.07;;;9.10;47.70;;;;;;5117226;27;20754;-90
2021/03/23 13:54:13;;;;;;;14.75;8.65;;;9.20;47.70;;;;;;5120336;27;20228;-89
2021/03/23 13:56:40;;;;;;;13.55;8.68;;;9.40;47.80;;;;;;5115652;27;20245;-89
2021/03/23 13:59:07;;;;;;;12.45;8.23;;;9.50;47.90;;;;;;5118910;27;20226;-89
2021/03/23 14:01:37;;;;;;;12.82;7.78;;;9.40;47.80;;;;;;5113120;27;20428;-89
2021/03/23 14:04:04;;;;;;;14.25;8.48;;;9.60;48.00;;;;;;5103058;27;20273;-89
2021/03/23 14:06:30;;;;;;;14.05;7.80;;;9.50;47.90;;;;;;5107571;27;20207;-89
2021/03/23 14:08:59;;;;;;;11.38;7.60;;;9.60;48.00;;;;;;5110705;27;20220;-88
2021/03/23 14:11:26;;;;;;;11.40;7.35;;;9.60;48.00;;;;;;5123150;27;20199;-88
2021/03/23 14:13:53;;;;;;;12.55;7.65;;;9.50;47.10;;;;;;5125173;27;20705;-88
2021/03/23 14:16:19;;;;;;;18.02;7.70;;;9.30;47.70;;;;;;5115700;27;20643;-88